Time;durP1;ratioP1;P1;durP2;ratioP2;P2;SDS_P1;SDS_P2;PMS_P1;PMS_P2;Temp;Humidity;BMP_temperature;BMP_pressure;BME280_temperature;BME280_humidity;BME280_pressure;Samples;Min_cycle;Max_cycle;Signal;HPM_P1;HPM_P2
2023/06/03 00:01:07;;;;;;;3.40;1.30;;;;;;;5.77;57.92;101239.25;105085;1260;73328;-62
2023/06/03 00:03:46;;;;;;;3.10;1.30;;;;;;;5.73;58.14;101240.66;105055;1262;69173;-62
2023/06/03 00:06:15;;;;;;;3.90;1.60;;;;;;;5.68;58.53;101243.80;105095;1262;69117;-62
2023/06/03 00:08:43;;;;;;;3.80;1.40;;;;;;;5.64;58.61;101247.10;105124;1260;74822;-62
2023/06/03 00:11:13;;;;;;;3.70;1.40;;;;;;;5.61;58.47;101249.18;105044;1260;82477;-62
2023/06/03 00:13:42;;;;;;;4.20;1.50;;;;;;;5.57;58.54;101251.45;105081;1260;73778;-63
2023/06/03 00:16:10;;;;;;;4.40;1.60;;;;;;;5.52;58.89;101249.04;105102;1260;69273;-63
2023/06/03 00:18:38;;;;;;;4.10;1.40;;;;;;;5.48;59.10;101252.70;105115;1262;69142;-63
2023/06/03 00:21:09;;;;;;;2.40;1.20;;;;;;;5.44;59.20;101257.03;105068;1262;75199;-63
2023/06/03 00:23:38;;;;;;;3.60;1.60;;;;;;;5.38;59.38;101262.59;105097;1262;82302;-62
2023/06/03 00:26:07;;;;;;;3.20;1.40;;;;;;;5.33;59.45;101261.39;105098;1260;73600;-63
2023/06/03 00:28:35;;;;;;;5.10;1.40;;;;;;;5.31;59.61;101263.64;105058;1260;69076;-62
2023/06/03 00:31:03;;;;;;;4.40;1.30;;;;;;;5.28;59.79;101262.95;105095;1263;69818;-62
2023/06/03 00:33:32;;;;;;;3.60;1.00;;;;;;;5.28;59.97;101263.14;105091;1264;74775;-63
2023/06/03 00:36:01;;;;;;;4.80;1.30;;;;;;;5.27;60.02;101265.39;105118;1262;83573;-63
2023/06/03 00:38:29;;;;;;;3.90;1.00;;;;;;;5.25;59.98;101261.23;105034;1260;73686;-63
2023/06/03 00:40:58;;;;;;;3.10;1.40;;;;;;;5.25;60.11;101266.25;105129;1260;69069;-62
2023/06/03 00:43:27;;;;;;;3.70;1.40;;;;;;;5.22;60.15;101271.11;105077;1260;69269;-63
2023/06/03 00:45:55;;;;;;;2.60;1.30;;;;;;;5.20;60.17;101273.36;105009;1263;74991;-63
2023/06/03 00:48:24;;;;;;;3.00;1.20;;;;;;;5.15;60.28;101279.43;105069;1262;83414;-63
2023/06/03 00:50:52;;;;;;;1.70;1.10;;;;;;;5.12;60.15;101283.77;105063;1260;71736;-63
2023/06/03 00:53:20;;;;;;;3.80;1.30;;;;;;;5.08;60.40;101286.88;105089;1260;69621;-62
2023/06/03 00:55:49;;;;;;;4.00;1.60;;;;;;;5.06;60.52;101290.52;105100;1262;69122;-63
2023/06/03 00:58:17;;;;;;;3.50;1.50;;;;;;;5.01;60.57;101290.17;105000;1265;73155;-62
2023/06/03 01:00:45;;;;;;;6.20;3.00;;;;;;;4.98;60.88;101292.77;105077;1262;82926;-62
2023/06/03 01:03:14;;;;;;;5.50;1.60;;;;;;;4.94;60.88;101297.96;105016;1260;72055;-63
2023/06/03 01:05:45;;;;;;;2.90;1.20;;;;;;;4.89;61.12;101298.65;105148;1258;69088;-62
2023/06/03 01:08:35;;;;;;;3.10;1.40;;;;;;;4.87;61.35;101301.59;105067;1260;69181;-62
2023/06/03 01:11:08;;;;;;;2.30;1.30;;;;;;;4.84;61.41;101304.19;105048;1260;74982;-62
2023/06/03 01:13:50;;;;;;;3.70;1.70;;;;;;;4.82;61.68;101301.42;105048;1260;83818;-63
2023/06/03 01:16:22;;;;;;;3.40;1.60;;;;;;;4.81;61.80;101305.75;105043;1260;73967;-63
2023/06/03 01:18:51;;;;;;;3.80;1.60;;;;;;;4.80;61.79;101305.06;105077;1258;69170;-62
2023/06/03 01:21:20;;;;;;;6.10;1.60;;;;;;;4.81;62.03;101303.67;105028;1260;69202;-62
2023/06/03 01:23:49;;;;;;;4.20;1.30;;;;;;;4.81;62.24;101302.98;105105;1262;74946;-62
2023/06/03 01:26:19;;;;;;;4.20;1.50;;;;;;;4.82;62.25;101301.41;105081;1262;82471;-62
2023/06/03 01:28:49;;;;;;;6.40;1.40;;;;;;;4.81;62.31;101301.77;105095;1262;73863;-62
2023/06/03 01:31:17;;;;;;;4.40;1.40;;;;;;;4.80;62.52;101305.06;105103;1262;69214;-63
2023/06/03 01:33:46;;;;;;;3.90;1.40;;;;;;;4.80;62.65;101306.45;105087;1260;69140;-63
2023/06/03 01:36:15;;;;;;;2.90;1.30;;;;;;;4.78;62.72;101309.90;105144;1262;73915;-64
2023/06/03 01:38:43;;;;;;;3.30;1.60;;;;;;;4.79;62.78;101309.55;105098;1260;82888;-63
2023/06/03 01:41:12;;;;;;;3.10;1.40;;;;;;;4.78;62.80;101309.73;105128;1260;73709;-63
2023/06/03 01:43:40;;;;;;;4.50;1.40;;;;;;;4.76;62.81;101306.09;105207;1260;69811;-63
2023/06/03 01:46:10;;;;;;;3.30;1.70;;;;;;;4.70;62.88;101306.77;105088;1261;69910;-63
2023/06/03 01:48:38;;;;;;;4.60;1.90;;;;;;;4.68;62.96;101308.33;105038;1260;74722;-63
2023/06/03 01:51:07;;;;;;;2.70;1.40;;;;;;;4.66;62.97;101308.33;105134;1260;83845;-63
2023/06/03 01:53:35;;;;;;;8.30;1.90;;;;;;;4.64;63.07;101309.36;105107;1262;72760;-63
2023/06/03 01:56:04;;;;;;;3.90;1.60;;;;;;;4.61;63.05;101307.80;105105;1260;69273;-63
2023/06/03 01:58:32;;;;;;;7.80;2.50;;;;;;;4.57;63.28;101308.48;105115;1260;69177;-63
2023/06/03 02:01:01;;;;;;;4.30;1.70;;;;;;;4.54;63.42;101312.98;105128;1260;74926;-63
2023/06/03 02:03:29;;;;;;;4.70;1.80;;;;;;;4.53;63.55;101309.69;105094;1260;81985;-63
2023/06/03 02:05:58;;;;;;;2.80;1.60;;;;;;;4.51;63.60;101313.66;105039;1265;73510;-63
2023/06/03 02:08:26;;;;;;;5.80;1.60;;;;;;;4.46;63.67;101315.38;105111;1262;69134;-63
2023/06/03 02:10:56;;;;;;;4.40;1.50;;;;;;;4.43;63.66;101312.42;105096;1260;69030;-63
2023/06/03 02:13:24;;;;;;;6.00;2.00;;;;;;;4.40;63.87;101315.53;105053;1262;73058;-63
2023/06/03 02:15:52;;;;;;;3.80;2.20;;;;;;;4.36;64.05;101317.24;105051;1260;83374;-63
2023/06/03 02:18:20;;;;;;;3.70;1.50;;;;;;;4.31;64.04;101317.41;104987;1260;73911;-63
2023/06/03 02:20:49;;;;;;;4.50;1.70;;;;;;;4.27;63.97;101322.07;105072;1264;69258;-63
2023/06/03 02:23:17;;;;;;;2.90;1.40;;;;;;;4.25;64.20;101321.70;105058;1262;69188;-63
2023/06/03 02:25:45;;;;;;;5.10;2.20;;;;;;;4.22;64.08;101322.39;105055;1265;74993;-63
2023/06/03 02:28:16;;;;;;;3.80;1.50;;;;;;;4.21;64.43;101325.33;105018;1263;83555;-63
2023/06/03 02:30:45;;;;;;;6.00;1.80;;;;;;;4.20;64.20;101324.63;105094;1260;73304;-63
2023/06/03 02:33:13;;;;;;;4.30;1.90;;;;;;;4.19;64.54;101327.73;105046;1260;69205;-63
2023/06/03 02:35:41;;;;;;;4.40;1.50;;;;;;;4.17;64.45;101329.64;105040;1263;69231;-63
2023/06/03 02:38:10;;;;;;;3.30;1.80;;;;;;;4.16;64.56;101332.91;105046;1260;74949;-63
2023/06/03 02:40:40;;;;;;;3.60;1.70;;;;;;;4.13;64.72;101335.48;105135;1260;82576;-63
2023/06/03 02:43:08;;;;;;;6.40;1.90;;;;;;;4.12;64.99;101337.91;105111;1262;72732;-63
2023/06/03 02:45:36;;;;;;;7.30;1.80;;;;;;;4.12;65.01;101339.98;105063;1263;69189;-63
2023/06/03 02:48:05;;;;;;;3.30;1.60;;;;;;;4.12;65.18;101341.55;105062;1260;69075;-61
2023/06/03 02:50:34;;;;;;;7.50;2.30;;;;;;;4.13;65.20;101341.20;105096;1260;74980;-61
2023/06/03 02:53:02;;;;;;;4.10;1.50;;;;;;;4.14;65.36;101342.25;105121;1260;83305;-61
2023/06/03 02:55:33;;;;;;;3.50;1.80;;;;;;;4.15;65.60;101338.97;105130;1262;72412;-61
2023/06/03 02:58:01;;;;;;;6.60;2.30;;;;;;;4.15;65.66;101338.11;105090;1260;69248;-61
2023/06/03 03:00:30;;;;;;;3.90;1.80;;;;;;;4.15;65.94;101335.85;105142;1259;69109;-61
2023/06/03 03:02:58;;;;;;;4.10;1.60;;;;;;;4.16;65.77;101336.38;105067;1262;73767;-61
2023/06/03 03:05:30;;;;;;;2.80;1.60;;;;;;;4.15;66.04;101334.64;105034;1260;81601;-61
2023/06/03 03:07:59;;;;;;;3.40;1.50;;;;;;;4.16;66.22;101338.98;105080;1260;73670;-61
2023/06/03 03:10:27;;;;;;;4.50;1.80;;;;;;;4.16;66.24;101344.69;105108;1260;69266;-61
2023/06/03 03:12:56;;;;;;;4.00;1.70;;;;;;;4.17;66.33;101345.38;105110;1263;69193;-61
2023/06/03 03:15:24;;;;;;;2.90;1.30;;;;;;;4.19;66.33;101350.06;105084;1261;74848;-61
2023/06/03 03:17:53;;;;;;;4.50;1.80;;;;;;;4.17;66.31;101352.30;105068;1266;83799;-61
2023/06/03 03:20:22;;;;;;;5.70;1.80;;;;;;;4.16;66.51;101354.73;104957;1260;73856;-61
2023/06/03 03:22:50;;;;;;;5.20;2.10;;;;;;;4.17;66.50;101363.20;104938;1259;69174;-61
2023/06/03 03:25:20;;;;;;;5.50;1.80;;;;;;;4.18;66.55;101364.92;105041;1260;69116;-60
2023/06/03 03:27:49;;;;;;;8.30;1.80;;;;;;;4.19;66.73;101365.11;105108;1262;74206;-60
2023/06/03 03:30:18;;;;;;;10.00;1.80;;;;;;;4.21;66.71;101366.50;105024;1266;83026;-60
2023/06/03 03:32:47;;;;;;;3.80;1.90;;;;;;;4.22;67.05;101369.45;105164;1262;73855;-60
2023/06/03 03:35:19;;;;;;;5.30;1.80;;;;;;;4.27;67.04;101371.38;105076;1259;69660;-60
2023/06/03 03:38:03;;;;;;;4.30;1.70;;;;;;;4.31;67.22;101372.27;105078;1258;69078;-61
2023/06/03 03:40:37;;;;;;;2.80;1.70;;;;;;;4.37;67.36;101372.79;105084;1262;75000;-61
2023/06/03 03:43:15;;;;;;;4.60;2.20;;;;;;;4.42;67.38;101375.23;104991;1264;83587;-60
2023/06/03 03:45:44;;;;;;;3.70;2.20;;;;;;;4.51;67.31;101377.52;104980;1260;73804;-61
2023/06/03 03:48:16;;;;;;;2.90;1.80;;;;;;;4.60;67.52;101379.13;104983;1260;69192;-61
2023/06/03 03:50:48;;;;;;;5.40;2.00;;;;;;;4.69;67.69;101378.80;104963;1259;69872;-61
2023/06/03 03:53:29;;;;;;;3.50;2.20;;;;;;;4.77;67.88;101381.24;105026;1260;74569;-60
2023/06/03 03:55:58;;;;;;;6.30;2.70;;;;;;;4.88;67.93;101384.03;105006;1265;83463;-60
2023/06/03 03:58:36;;;;;;;3.50;2.00;;;;;;;5.01;68.05;101382.66;105026;1262;73407;-61
2023/06/03 04:01:09;;;;;;;6.30;1.90;;;;;;;5.17;67.95;101382.34;105016;1259;69139;-60
2023/06/03 04:03:41;;;;;;;3.00;1.60;;;;;;;5.33;67.76;101383.92;105226;1259;69086;-60
2023/06/03 04:06:11;;;;;;;5.30;1.90;;;;;;;5.47;67.38;101383.57;105082;1260;74664;-61
2023/06/03 04:08:46;;;;;;;3.40;1.50;;;;;;;5.60;67.04;101385.30;105300;1265;83720;-61
2023/06/03 04:11:14;;;;;;;5.10;2.00;;;;;;;5.75;66.88;101387.88;105052;1262;71712;-61
2023/06/03 04:13:42;;;;;;;7.00;2.20;;;;;;;5.87;66.59;101391.34;104975;1259;68958;-61
2023/06/03 04:16:13;;;;;;;3.70;1.50;;;;;;;5.98;66.34;101393.42;104974;1261;69166;-61
2023/06/03 04:18:42;;;;;;;5.10;2.00;;;;;;;6.11;66.22;101390.09;105897;1263;75001;-61
2023/06/03 04:21:17;;;;;;;5.50;2.10;;;;;;;6.21;65.88;101392.50;105643;1260;83628;-61
2023/06/03 04:23:46;;;;;;;4.50;2.20;;;;;;;6.32;65.87;101391.06;105184;1263;73386;-61
2023/06/03 04:26:15;;;;;;;5.10;2.30;;;;;;;6.42;65.55;101392.92;105182;1260;69099;-60
2023/06/03 04:28:45;;;;;;;7.00;2.10;;;;;;;6.51;65.45;101391.86;105093;1260;69040;-60
2023/06/03 04:31:14;;;;;;;4.40;2.60;;;;;;;6.59;65.28;101395.48;105126;1262;75223;-59
2023/06/03 04:33:43;;;;;;;4.80;2.00;;;;;;;6.65;64.99;101394.40;105150;1263;82931;-60
2023/06/03 04:36:12;;;;;;;4.40;2.00;;;;;;;6.74;64.90;101394.52;104897;1260;73777;-60
2023/06/03 04:38:41;;;;;;;6.10;1.70;;;;;;;6.81;64.77;101392.23;104901;1260;69101;-60
2023/06/03 04:41:15;;;;;;;3.20;1.90;;;;;;;6.88;64.36;101395.48;105214;1262;69106;-60
2023/06/03 04:43:45;;;;;;;4.70;2.00;;;;;;;6.93;64.48;101396.33;105129;1263;75177;-60
2023/06/03 04:46:15;;;;;;;5.10;1.70;;;;;;;7.01;64.43;101399.92;105002;1260;83460;-60
2023/06/03 04:48:45;;;;;;;4.40;2.10;;;;;;;7.11;64.47;101397.27;105127;1259;73689;-61
2023/06/03 04:51:14;;;;;;;3.60;1.60;;;;;;;7.20;64.19;101399.97;104895;1260;69077;-60
2023/06/03 04:53:43;;;;;;;3.20;1.60;;;;;;;7.29;64.44;101403.04;105015;1260;69211;-61
2023/06/03 04:56:12;;;;;;;5.00;1.80;;;;;;;7.37;64.47;101399.50;105021;1259;75024;-60
2023/06/03 04:58:42;;;;;;;3.80;1.50;;;;;;;7.45;64.18;101394.91;104930;1265;83354;-60
2023/06/03 05:01:16;;;;;;;3.90;1.50;;;;;;;7.56;64.08;101399.00;104900;1263;73701;-60
2023/06/03 05:03:45;;;;;;;3.50;1.60;;;;;;;7.65;63.80;101400.66;105284;1263;69198;-61
2023/06/03 05:06:14;;;;;;;6.00;1.30;;;;;;;7.78;63.90;101404.00;105164;1263;69112;-62
2023/06/03 05:08:43;;;;;;;4.10;1.40;;;;;;;7.93;63.71;101402.66;104736;1265;75368;-62
2023/06/03 05:11:11;;;;;;;2.60;1.50;;;;;;;8.05;63.62;101399.05;107145;1261;82983;-62
2023/06/03 05:13:40;;;;;;;5.80;1.50;;;;;;;8.15;63.49;101399.29;105224;1262;73416;-61
2023/06/03 05:16:12;;;;;;;5.80;1.70;;;;;;;8.27;63.39;101396.73;105283;1260;69125;-63
2023/06/03 05:18:41;;;;;;;5.40;1.90;;;;;;;8.38;63.02;101401.99;104965;1263;69170;-61
2023/06/03 05:21:10;;;;;;;3.90;1.70;;;;;;;8.52;63.36;101404.98;104972;1265;73983;-61
2023/06/03 05:23:38;;;;;;;4.40;1.60;;;;;;;8.64;62.91;101401.88;105040;1261;82590;-60
2023/06/03 05:26:07;;;;;;;3.70;1.60;;;;;;;8.75;62.82;101401.73;105218;1269;73805;-62
2023/06/03 05:28:36;;;;;;;3.40;1.20;;;;;;;8.84;61.91;101400.55;105227;1263;69203;-61
2023/06/03 05:31:04;;;;;;;4.00;1.20;;;;;;;8.92;62.09;101400.77;104918;1266;69232;-61
2023/06/03 05:33:35;;;;;;;4.50;2.00;;;;;;;9.01;61.59;101399.45;105252;1263;73976;-60
2023/06/03 05:36:08;;;;;;;3.10;1.50;;;;;;;9.09;61.46;101395.48;104827;1264;83893;-61
2023/06/03 05:38:36;;;;;;;6.50;1.20;;;;;;;9.20;61.42;101397.27;105057;1263;72823;-61
2023/06/03 05:41:06;;;;;;;4.10;1.40;;;;;;;9.29;60.98;101402.16;105238;1261;69069;-61
2023/06/03 05:43:35;;;;;;;2.30;1.20;;;;;;;9.36;60.83;101399.94;105090;1263;69241;-61
2023/06/03 05:46:05;;;;;;;2.60;1.40;;;;;;;9.44;60.41;101397.73;105140;1262;73935;-61
2023/06/03 05:48:34;;;;;;;5.00;1.50;;;;;;;9.50;60.43;101395.36;105063;1266;83379;-61
2023/06/03 05:51:05;;;;;;;6.70;1.80;;;;;;;9.60;60.46;101400.08;105116;1263;74030;-61
2023/06/03 05:53:38;;;;;;;4.40;1.40;;;;;;;9.72;60.57;101398.83;105224;1259;69656;-63
2023/06/03 05:56:06;;;;;;;3.40;1.50;;;;;;;9.84;59.99;101400.20;105328;1260;69018;-60
2023/06/03 05:58:35;;;;;;;2.30;1.20;;;;;;;9.89;59.49;101399.39;104790;1265;218973;-61
2023/06/03 06:01:03;;;;;;;4.70;1.40;;;;;;;9.94;59.37;101398.27;104999;1266;82569;-60
2023/06/03 06:03:32;;;;;;;2.30;1.30;;;;;;;10.01;59.16;101397.96;105124;1261;73758;-61
2023/06/03 06:06:01;;;;;;;4.20;1.20;;;;;;;10.06;58.90;101402.23;104813;1267;69239;-61
2023/06/03 06:08:30;;;;;;;2.00;1.30;;;;;;;10.12;58.90;101401.94;105125;1263;69218;-61
2023/06/03 06:10:59;;;;;;;3.30;1.10;;;;;;;10.20;58.74;101402.84;104926;1261;74049;-63
2023/06/03 06:13:28;;;;;;;2.80;1.10;;;;;;;10.27;58.74;101404.98;105253;1261;83000;-60
2023/06/03 06:16:01;;;;;;;4.20;1.30;;;;;;;10.35;58.42;101409.73;105085;1259;73303;-60
2023/06/03 06:18:30;;;;;;;3.10;1.50;;;;;;;10.42;58.24;101407.14;105033;1266;69341;-60
2023/06/03 06:20:59;;;;;;;2.40;1.30;;;;;;;10.50;58.23;101404.19;105137;1263;69211;-61
2023/06/03 06:23:29;;;;;;;3.00;1.10;;;;;;;10.58;58.13;101406.83;105008;1265;74976;-64
2023/06/03 06:25:58;;;;;;;4.50;1.60;;;;;;;10.65;58.09;101409.80;105094;1264;83427;-64
2023/06/03 06:28:27;;;;;;;1.80;1.30;;;;;;;10.73;57.66;101410.88;104892;1264;73466;-64
2023/06/03 06:31:05;;;;;;;5.70;1.20;;;;;;;10.76;57.05;101408.36;105041;1264;69156;-64
2023/06/03 06:33:39;;;;;;;2.90;1.10;;;;;;;10.78;56.99;101411.83;105024;1260;69118;-63
2023/06/03 06:36:49;;;;;;;2.50;1.10;;;;;;;10.82;56.85;101409.27;104881;1274;73886;-63
2023/06/03 06:39:33;;;;;;;5.30;1.90;;;;;;;10.94;57.15;101410.05;105003;1263;82930;-64
2023/06/03 06:42:13;;;;;;;2.30;1.00;;;;;;;11.06;56.97;101409.80;105011;1263;74179;-65
2023/06/03 06:44:49;;;;;;;3.40;1.20;;;;;;;11.17;56.68;101409.20;105032;1261;69081;-65
2023/06/03 06:47:22;;;;;;;2.10;0.70;;;;;;;11.27;56.23;101408.77;105048;1263;69068;-64
2023/06/03 06:49:55;;;;;;;1.50;0.70;;;;;;;11.37;55.81;101409.77;104949;1267;74896;-63
2023/06/03 06:52:25;;;;;;;3.70;1.10;;;;;;;11.47;55.70;101407.08;105067;1263;82411;-63
2023/06/03 06:54:59;;;;;;;1.60;1.00;;;;;;;11.56;55.50;101404.06;104901;1266;73791;-63
2023/06/03 06:57:28;;;;;;;2.90;1.00;;;;;;;11.68;55.54;101404.28;105100;1264;69188;-64
2023/06/03 06:59:58;;;;;;;6.00;1.50;;;;;;;11.77;54.85;101407.87;105107;1261;69091;-64
2023/06/03 07:02:26;;;;;;;2.10;0.90;;;;;;;11.84;54.56;101407.35;105029;1260;73333;-64
2023/06/03 07:04:55;;;;;;;2.60;1.10;;;;;;;11.93;54.77;101407.67;105022;1264;83324;-64
2023/06/03 07:07:24;;;;;;;2.80;1.10;;;;;;;12.03;54.25;101405.66;104978;1261;73724;-64
2023/06/03 07:09:52;;;;;;;2.40;0.80;;;;;;;12.10;53.92;101408.46;104962;1273;69221;-64
2023/06/03 07:12:20;;;;;;;3.60;1.00;;;;;;;12.16;53.44;101406.02;104981;1260;69263;-64
2023/06/03 07:14:49;;;;;;;2.60;0.90;;;;;;;12.26;53.37;101407.13;105014;1261;73944;-64
2023/06/03 07:17:17;;;;;;;4.20;1.00;;;;;;;12.39;53.23;101409.20;105041;1263;82237;-64
2023/06/03 07:19:45;;;;;;;3.60;0.80;;;;;;;12.49;52.75;101413.30;105034;1264;73360;-64
2023/06/03 07:22:15;;;;;;;3.20;1.10;;;;;;;12.57;52.41;101420.95;105070;1261;69071;-64
2023/06/03 07:24:45;;;;;;;2.90;0.90;;;;;;;12.62;51.95;101420.64;104990;1261;69179;-64
2023/06/03 07:27:22;;;;;;;2.30;1.00;;;;;;;12.67;51.54;101417.68;105038;1264;75038;-64
2023/06/03 07:29:51;;;;;;;2.60;0.80;;;;;;;12.73;51.90;101416.11;105015;1259;83435;-64
2023/06/03 07:32:22;;;;;;;2.10;1.00;;;;;;;12.87;51.70;101419.91;104920;1267;73856;-64
2023/06/03 07:34:51;;;;;;;3.20;1.30;;;;;;;12.93;51.18;101421.65;104889;1266;69154;-64
2023/06/03 07:37:19;;;;;;;2.30;1.00;;;;;;;12.90;51.05;101415.60;105071;1264;69169;-64
2023/06/03 07:39:48;;;;;;;3.90;0.80;;;;;;;12.99;51.22;101414.11;105084;1261;74631;-64
2023/06/03 07:42:22;;;;;;;3.10;1.10;;;;;;;13.11;51.13;101414.44;104998;1264;83384;-64
2023/06/03 07:45:12;;;;;;;2.10;1.00;;;;;;;13.28;50.81;101423.60;104985;1260;73657;-64
2023/06/03 07:47:40;;;;;;;3.80;1.00;;;;;;;13.32;50.24;101418.36;105003;1262;69270;-64
2023/06/03 07:50:25;;;;;;;3.00;0.80;;;;;;;13.33;50.22;101415.86;105008;1263;69084;-64
2023/06/03 07:53:04;;;;;;;2.20;0.90;;;;;;;13.42;49.92;101416.63;105079;1261;74856;-64
2023/06/03 07:55:43;;;;;;;3.20;1.00;;;;;;;13.51;50.00;101418.46;105079;1263;83465;-64
2023/06/03 07:58:12;;;;;;;2.30;0.70;;;;;;;13.62;50.24;101423.17;105050;1261;73672;-64
2023/06/03 08:00:48;;;;;;;3.10;1.00;;;;;;;13.76;49.50;101419.90;105070;1263;69230;-62
2023/06/03 08:03:18;;;;;;;3.20;0.90;;;;;;;13.81;49.08;101417.64;104971;1265;69243;-62
2023/06/03 08:05:48;;;;;;;3.50;1.60;;;;;;;13.78;48.53;101420.70;105061;1263;74822;-62
2023/06/03 08:08:21;;;;;;;5.20;2.00;;;;;;;13.85;48.89;101422.23;105038;1260;83027;-62
2023/06/03 08:10:49;;;;;;;2.00;0.90;;;;;;;14.03;48.94;101427.02;104919;1267;73243;-62
2023/06/03 08:13:18;;;;;;;4.10;1.00;;;;;;;14.16;48.36;101421.66;104946;1265;69160;-62
2023/06/03 08:15:47;;;;;;;2.90;0.90;;;;;;;14.21;47.57;101423.07;105148;1264;69084;-61
2023/06/03 08:18:34;;;;;;;3.40;1.00;;;;;;;14.22;47.46;101417.56;105061;1259;74949;-61
2023/06/03 08:21:03;;;;;;;3.20;0.90;;;;;;;14.31;47.36;101418.86;105012;1263;82074;-62
2023/06/03 08:23:33;;;;;;;5.80;1.10;;;;;;;14.40;47.37;101417.79;105106;1261;73910;-62
2023/06/03 08:26:01;;;;;;;2.40;1.50;;;;;;;14.56;47.73;101420.06;105052;1264;69180;-62
2023/06/03 08:28:29;;;;;;;4.80;1.40;;;;;;;14.74;47.50;101415.52;105004;1264;69245;-62
2023/06/03 08:30:58;;;;;;;2.10;0.90;;;;;;;14.84;46.98;101414.94;105062;1264;74908;-62
2023/06/03 08:33:26;;;;;;;4.20;0.90;;;;;;;14.90;46.59;101417.69;105050;1263;83749;-62
2023/06/03 08:35:56;;;;;;;3.90;0.90;;;;;;;14.95;46.54;101421.02;105082;1260;74005;-62
2023/06/03 08:38:25;;;;;;;3.20;0.80;;;;;;;15.10;46.36;101416.55;104989;1260;69228;-63
2023/06/03 08:40:54;;;;;;;2.20;0.70;;;;;;;15.23;45.80;101417.32;105104;1262;69166;-63
2023/06/03 08:43:27;;;;;;;2.70;0.90;;;;;;;15.37;45.91;101419.36;105065;1264;75120;-63
2023/06/03 08:45:57;;;;;;;2.10;1.10;;;;;;;15.58;45.51;101418.88;105017;1260;82368;-63
2023/06/03 08:48:37;;;;;;;2.70;1.10;;;;;;;15.76;45.23;101423.60;105025;1264;72811;-63
2023/06/03 08:51:06;;;;;;;0.90;0.60;;;;;;;15.86;44.15;101417.03;105009;1263;69244;-60
2023/06/03 08:53:44;;;;;;;1.60;0.60;;;;;;;15.92;43.78;101415.15;104955;1265;69225;-57
2023/06/03 08:56:16;;;;;;;1.70;0.70;;;;;;;15.97;43.28;101410.70;105078;1261;73747;-60
2023/06/03 08:58:52;;;;;;;3.00;0.80;;;;;;;16.06;43.27;101414.17;105031;1263;83380;-60
2023/06/03 09:01:32;;;;;;;3.30;0.80;;;;;;;16.18;43.21;101409.09;104804;1264;72877;-60
2023/06/03 09:04:02;;;;;;;4.00;0.70;;;;;;;16.31;42.85;101410.60;105071;1264;69178;-60
2023/06/03 09:06:31;;;;;;;2.10;0.80;;;;;;;16.43;42.53;101408.67;105037;1260;69036;-61
2023/06/03 09:09:00;;;;;;;13.10;4.40;;;;;;;16.54;42.42;101405.37;105100;1264;73554;-60
2023/06/03 09:11:29;;;;;;;2.40;0.90;;;;;;;16.61;42.26;101407.15;105038;1264;82759;-61
2023/06/03 09:13:59;;;;;;;3.40;0.80;;;;;;;16.69;42.11;101406.61;105052;1263;72353;-61
2023/06/03 09:16:28;;;;;;;7.20;1.90;;;;;;;16.82;41.44;101402.85;105058;1261;69173;-61
2023/06/03 09:18:57;;;;;;;40.70;12.60;;;;;;;16.90;41.68;101398.93;105057;1260;69090;-61
2023/06/03 09:21:26;;;;;;;1.60;0.80;;;;;;;17.01;40.87;101399.11;105072;1263;74769;-61
2023/06/03 09:23:54;;;;;;;2.80;0.80;;;;;;;17.02;40.28;101395.71;105059;1260;83452;-60
2023/06/03 09:26:23;;;;;;;2.20;0.60;;;;;;;17.03;39.48;101396.02;105062;1260;72736;-60
2023/06/03 09:28:51;;;;;;;4.30;0.80;;;;;;;16.99;38.92;101391.96;105069;1260;69083;-60
2023/06/03 09:31:20;;;;;;;1.60;0.80;;;;;;;17.06;39.19;101395.36;105064;1261;69168;-60
2023/06/03 09:33:49;;;;;;;2.20;0.70;;;;;;;17.20;38.98;101391.30;104988;1267;73868;-60
2023/06/03 09:36:17;;;;;;;1.90;0.60;;;;;;;17.28;38.59;101392.35;104986;1267;83451;-60
2023/06/03 09:38:55;;;;;;;1.20;0.60;;;;;;;17.32;38.16;101391.45;105045;1260;72795;-60
2023/06/03 09:41:27;;;;;;;4.20;1.30;;;;;;;17.39;38.12;101387.92;105016;1263;69163;-60
2023/06/03 09:44:01;;;;;;;1.70;0.60;;;;;;;17.51;38.00;101381.64;105061;1261;69193;-60
2023/06/03 09:46:31;;;;;;;3.00;1.00;;;;;;;17.70;38.20;101383.15;105036;1260;74935;-61
2023/06/03 09:49:12;;;;;;;3.50;0.80;;;;;;;17.91;37.49;101377.71;105060;1264;83250;-60
2023/06/03 09:51:55;;;;;;;2.20;0.70;;;;;;;18.03;37.12;101376.14;105075;1259;73691;-60
2023/06/03 09:54:24;;;;;;;1.70;0.60;;;;;;;18.12;36.79;101373.77;105073;1261;69123;-60
2023/06/03 09:56:53;;;;;;;7.20;0.80;;;;;;;18.20;36.72;101373.16;105067;1260;69090;-60
2023/06/03 09:59:25;;;;;;;3.40;0.80;;;;;;;18.35;36.40;101374.64;105087;1266;73266;-60
2023/06/03 10:01:54;;;;;;;1.00;0.60;;;;;;;18.54;36.31;101374.16;104980;1263;83633;-60
2023/06/03 10:04:24;;;;;;;1.80;0.60;;;;;;;18.73;35.87;101375.42;105071;1263;73638;-60
2023/06/03 10:07:13;;;;;;;2.70;0.70;;;;;;;18.96;35.61;101376.98;105048;1263;69141;-61
2023/06/03 10:09:47;;;;;;;1.20;0.50;;;;;;;19.29;35.32;101375.63;105038;1263;69157;-61
2023/06/03 10:12:27;;;;;;;2.40;0.70;;;;;;;19.56;35.01;101370.30;105052;1264;74916;-60
2023/06/03 10:14:59;;;;;;;1.40;0.70;;;;;;;19.71;34.32;101365.73;105074;1263;83541;-60
2023/06/03 10:17:28;;;;;;;2.30;0.70;;;;;;;19.81;33.61;101362.42;105061;1260;72442;-61
2023/06/03 10:19:56;;;;;;;5.30;0.80;;;;;;;19.82;33.57;101360.27;105024;1264;69208;-60
2023/06/03 10:22:26;;;;;;;1.90;0.80;;;;;;;19.72;33.08;101360.15;105064;1263;69138;-60
2023/06/03 10:24:55;;;;;;;2.60;0.90;;;;;;;19.43;32.57;101356.17;104967;1260;73738;-60
2023/06/03 10:27:24;;;;;;;1.70;0.70;;;;;;;19.41;32.69;101356.66;105081;1259;83419;-60
2023/06/03 10:29:53;;;;;;;2.30;0.60;;;;;;;19.56;32.57;101350.95;105085;1261;73716;-60
2023/06/03 10:32:23;;;;;;;2.50;0.60;;;;;;;19.81;32.71;101346.67;105088;1264;69112;-60
2023/06/03 10:34:51;;;;;;;4.40;0.70;;;;;;;20.21;32.71;101345.63;105058;1260;69178;-60
2023/06/03 10:37:22;;;;;;;2.20;0.40;;;;;;;20.66;32.85;101343.69;104908;1265;73593;-60
2023/06/03 10:39:51;;;;;;;2.10;0.60;;;;;;;21.04;32.43;101343.20;105086;1263;83411;-60
2023/06/03 10:42:21;;;;;;;1.80;0.60;;;;;;;21.35;31.91;101338.08;105054;1259;72762;-62
2023/06/03 10:44:49;;;;;;;3.90;0.90;;;;;;;21.67;31.54;101340.21;104969;1259;69158;-60
2023/06/03 10:47:17;;;;;;;1.30;0.60;;;;;;;22.00;31.01;101335.05;105081;1260;69088;-61
2023/06/03 10:50:11;;;;;;;2.50;0.70;;;;;;;22.22;30.34;101331.20;105081;1263;75240;-60
2023/06/03 10:52:55;;;;;;;1.70;0.50;;;;;;;22.57;30.05;101329.25;105052;1264;83774;-61
2023/06/03 10:55:38;;;;;;;1.60;0.40;;;;;;;22.84;29.26;101332.08;105011;1259;74062;-61
2023/06/03 10:58:30;;;;;;;2.40;0.50;;;;;;;23.15;28.72;101326.21;105018;1260;69200;-61
2023/06/03 11:01:01;;;;;;;2.60;0.50;;;;;;;23.52;28.18;101321.62;105103;1261;69214;-61
2023/06/03 11:03:31;;;;;;;3.70;0.60;;;;;;;23.70;27.90;101318.14;105112;1261;73860;-61
2023/06/03 11:06:18;;;;;;;1.50;0.50;;;;;;;23.81;27.33;101320.46;105078;1261;82547;-61
2023/06/03 11:09:08;;;;;;;2.30;0.60;;;;;;;24.12;27.25;101320.71;105057;1261;72710;-61
2023/06/03 11:11:48;;;;;;;4.00;0.40;;;;;;;24.50;26.91;101317.48;105058;1259;69073;-60
2023/06/03 11:14:26;;;;;;;2.10;0.40;;;;;;;24.80;26.84;101314.58;105084;1261;69494;-60
2023/06/03 11:16:58;;;;;;;1.90;0.50;;;;;;;24.95;26.69;101310.80;105093;1260;74786;-60
2023/06/03 11:19:37;;;;;;;0.90;0.50;;;;;;;25.11;26.47;101308.02;105103;1260;82810;-60
2023/06/03 11:22:07;;;;;;;1.60;0.60;;;;;;;25.16;25.84;101316.73;105060;1260;72628;-60
2023/06/03 11:24:42;;;;;;;1.60;0.50;;;;;;;25.24;25.17;101311.92;105076;1262;69251;-61
2023/06/03 11:27:14;;;;;;;0.40;0.40;;;;;;;25.34;24.84;101307.54;105171;1259;69170;-61
2023/06/03 11:29:49;;;;;;;1.20;0.60;;;;;;;25.29;24.62;101310.45;105026;1261;74017;-61
2023/06/03 11:32:44;;;;;;;1.10;0.40;;;;;;;25.19;24.20;101314.67;105091;1259;83664;-61
2023/06/03 11:35:25;;;;;;;2.00;0.80;;;;;;;25.23;24.04;101311.48;104995;1261;73270;-61
2023/06/03 11:37:54;;;;;;;1.50;0.50;;;;;;;25.24;23.96;101308.59;105045;1260;69116;-61
2023/06/03 11:40:23;;;;;;;2.30;0.70;;;;;;;25.53;24.26;101305.31;105078;1262;69291;-61